sensor_id;sensor_type;location;lat;lon;timestamp;temperature;humidity
981;DHT22;479;53.514;9.994;2022-09-17T00:00:10;13.30;99.90
981;DHT22;479;53.514;9.994;2022-09-17T00:02:39;13.20;99.90
981;DHT22;479;53.514;9.994;2022-09-17T00:05:17;13.20;99.90
981;DHT22;479;53.514;9.994;2022-09-17T00:07:43;13.20;99.90
981;DHT22;479;53.514;9.994;2022-09-17T00:10:10;13.30;99.90
981;DHT22;479;53.514;9.994;2022-09-17T00:12:37;13.30;99.90
981;DHT22;479;53.514;9.994;2022-09-17T00:15:07;13.40;99.90
981;DHT22;479;53.514;9.994;2022-09-17T00:17:34;13.30;99.90
981;DHT22;479;53.514;9.994;2022-09-17T00:20:01;13.30;99.90
981;DHT22;479;53.514;9.994;2022-09-17T00:22:29;13.20;99.90
981;DHT22;479;53.514;9.994;2022-09-17T00:24:56;13.30;99.90
981;DHT22;479;53.514;9.994;2022-09-17T00:27:23;13.40;99.90
981;DHT22;479;53.514;9.994;2022-09-17T00:29:55;13.40;99.90
981;DHT22;479;53.514;9.994;2022-09-17T00:32:24;13.30;99.90
981;DHT22;479;53.514;9.994;2022-09-17T00:34:52;13.30;99.90
981;DHT22;479;53.514;9.994;2022-09-17T00:37:19;13.30;99.90
981;DHT22;479;53.514;9.994;2022-09-17T00:39:47;13.30;99.90
981;DHT22;479;53.514;9.994;2022-09-17T00:42:21;13.30;99.90
981;DHT22;479;53.514;9.994;2022-09-17T00:44:54;13.30;99.90
981;DHT22;479;53.514;9.994;2022-09-17T00:47:28;13.30;99.90
981;DHT22;479;53.514;9.994;2022-09-17T00:49:59;13.30;99.90
981;DHT22;479;53.514;9.994;2022-09-17T00:52:30;13.30;99.90
981;DHT22;479;53.514;9.994;2022-09-17T00:55:05;13.30;99.90
981;DHT22;479;53.514;9.994;2022-09-17T00:57:34;13.40;99.90
981;DHT22;479;53.514;9.994;2022-09-17T01:00:04;13.20;99.90
981;DHT22;479;53.514;9.994;2022-09-17T01:02:33;13.20;99.90
981;DHT22;479;53.514;9.994;2022-09-17T01:05:00;13.10;99.90
981;DHT22;479;53.514;9.994;2022-09-17T01:10:59;12.90;99.90
981;DHT22;479;53.514;9.994;2022-09-17T01:13:56;12.90;99.90
981;DHT22;479;53.514;9.994;2022-09-17T01:16:31;12.80;99.90
981;DHT22;479;53.514;9.994;2022-09-17T01:19:26;12.80;99.90
981;DHT22;479;53.514;9.994;2022-09-17T01:22:05;12.70;99.90
981;DHT22;479;53.514;9.994;2022-09-17T01:25:00;12.60;99.90
981;DHT22;479;53.514;9.994;2022-09-17T01:28:05;12.70;99.90
981;DHT22;479;53.514;9.994;2022-09-17T01:31:00;12.70;99.90
981;DHT22;479;53.514;9.994;2022-09-17T01:33:34;12.70;99.90
981;DHT22;479;53.514;9.994;2022-09-17T01:36:13;12.60;99.90
981;DHT22;479;53.514;9.994;2022-09-17T01:38:49;12.70;99.90
981;DHT22;479;53.514;9.994;2022-09-17T01:41:25;12.70;99.90
981;DHT22;479;53.514;9.994;2022-09-17T01:44:00;12.70;99.90
981;DHT22;479;53.514;9.994;2022-09-17T01:46:32;12.70;99.90
981;DHT22;479;53.514;9.994;2022-09-17T01:49:04;12.70;99.90
981;DHT22;479;53.514;9.994;2022-09-17T01:51:35;12.70;99.90
981;DHT22;479;53.514;9.994;2022-09-17T01:54:09;12.60;99.90
981;DHT22;479;53.514;9.994;2022-09-17T01:56:38;12.50;99.90
981;DHT22;479;53.514;9.994;2022-09-17T01:59:12;12.50;99.90
981;DHT22;479;53.514;9.994;2022-09-17T02:02:05;12.50;99.90
981;DHT22;479;53.514;9.994;2022-09-17T02:05:07;12.50;99.90
981;DHT22;479;53.514;9.994;2022-09-17T02:07:39;12.50;99.90
981;DHT22;479;53.514;9.994;2022-09-17T02:10:11;12.60;99.90
981;DHT22;479;53.514;9.994;2022-09-17T02:12:42;12.50;99.90
981;DHT22;479;53.514;9.994;2022-09-17T02:15:15;12.50;99.90
981;DHT22;479;53.514;9.994;2022-09-17T02:17:48;12.50;99.90
981;DHT22;479;53.514;9.994;2022-09-17T02:20:16;12.60;99.90
981;DHT22;479;53.514;9.994;2022-09-17T02:22:47;12.50;99.90
981;DHT22;479;53.514;9.994;2022-09-17T02:25:21;12.50;99.90
981;DHT22;479;53.514;9.994;2022-09-17T02:27:59;12.40;99.90
981;DHT22;479;53.514;9.994;2022-09-17T02:30:28;12.50;99.90
981;DHT22;479;53.514;9.994;2022-09-17T02:32:58;12.50;99.90
981;DHT22;479;53.514;9.994;2022-09-17T02:35:26;12.60;99.90
981;DHT22;479;53.514;9.994;2022-09-17T02:37:53;12.60;99.90
981;DHT22;479;53.514;9.994;2022-09-17T02:40:23;12.60;99.90
981;DHT22;479;53.514;9.994;2022-09-17T02:43:01;12.60;99.90
981;DHT22;479;53.514;9.994;2022-09-17T02:45:40;12.70;99.90
981;DHT22;479;53.514;9.994;2022-09-17T02:48:40;12.70;99.90
981;DHT22;479;53.514;9.994;2022-09-17T02:51:30;12.60;99.90
981;DHT22;479;53.514;9.994;2022-09-17T02:54:09;12.40;99.90
981;DHT22;479;53.514;9.994;2022-09-17T02:56:45;12.40;99.90
981;DHT22;479;53.514;9.994;2022-09-17T02:59:18;12.30;99.90
981;DHT22;479;53.514;9.994;2022-09-17T03:01:52;12.30;99.90
981;DHT22;479;53.514;9.994;2022-09-17T03:04:24;12.30;99.90
981;DHT22;479;53.514;9.994;2022-09-17T03:06:56;12.30;99.90
981;DHT22;479;53.514;9.994;2022-09-17T03:09:24;12.30;99.90
981;DHT22;479;53.514;9.994;2022-09-17T03:12:09;12.40;99.90
981;DHT22;479;53.514;9.994;2022-09-17T03:14:36;12.40;99.90
981;DHT22;479;53.514;9.994;2022-09-17T03:17:03;12.40;99.90
981;DHT22;479;53.514;9.994;2022-09-17T03:19:31;12.30;99.90
981;DHT22;479;53.514;9.994;2022-09-17T03:21:58;12.30;99.90
981;DHT22;479;53.514;9.994;2022-09-17T03:24:25;12.30;99.90
981;DHT22;479;53.514;9.994;2022-09-17T03:26:52;12.20;99.90
981;DHT22;479;53.514;9.994;2022-09-17T03:29:19;12.20;99.90
981;DHT22;479;53.514;9.994;2022-09-17T03:31:46;12.10;99.90
981;DHT22;479;53.514;9.994;2022-09-17T03:34:13;12.20;99.90
981;DHT22;479;53.514;9.994;2022-09-17T03:36:41;12.20;99.90
981;DHT22;479;53.514;9.994;2022-09-17T03:39:08;12.30;99.90
981;DHT22;479;53.514;9.994;2022-09-17T03:41:35;12.20;99.90
981;DHT22;479;53.514;9.994;2022-09-17T03:44:02;12.10;99.90
981;DHT22;479;53.514;9.994;2022-09-17T03:46:29;12.10;99.90
981;DHT22;479;53.514;9.994;2022-09-17T03:48:56;12.10;99.90
981;DHT22;479;53.514;9.994;2022-09-17T03:51:23;12.10;99.90
981;DHT22;479;53.514;9.994;2022-09-17T03:53:55;12.10;99.90
981;DHT22;479;53.514;9.994;2022-09-17T03:56:21;12.10;99.90
981;DHT22;479;53.514;9.994;2022-09-17T03:58:49;12.00;99.90
981;DHT22;479;53.514;9.994;2022-09-17T04:01:16;12.00;99.90
981;DHT22;479;53.514;9.994;2022-09-17T04:03:43;12.10;99.90
981;DHT22;479;53.514;9.994;2022-09-17T04:06:10;12.10;99.90
981;DHT22;479;53.514;9.994;2022-09-17T04:08:37;12.10;99.90
981;DHT22;479;53.514;9.994;2022-09-17T04:11:05;12.00;99.90
981;DHT22;479;53.514;9.994;2022-09-17T04:13:33;11.90;99.90
981;DHT22;479;53.514;9.994;2022-09-17T04:16:00;11.90;99.90
981;DHT22;479;53.514;9.994;2022-09-17T04:18:27;11.80;99.90
981;DHT22;479;53.514;9.994;2022-09-17T04:20:54;11.80;99.90
981;DHT22;479;53.514;9.994;2022-09-17T04:23:21;11.80;99.90
981;DHT22;479;53.514;9.994;2022-09-17T04:25:48;11.80;99.90
981;DHT22;479;53.514;9.994;2022-09-17T04:28:16;11.70;99.90
981;DHT22;479;53.514;9.994;2022-09-17T04:30:47;11.80;99.90
981;DHT22;479;53.514;9.994;2022-09-17T04:33:14;11.80;99.90
981;DHT22;479;53.514;9.994;2022-09-17T04:35:40;11.80;99.90
981;DHT22;479;53.514;9.994;2022-09-17T04:38:08;11.90;99.90
981;DHT22;479;53.514;9.994;2022-09-17T04:40:35;11.80;99.90
981;DHT22;479;53.514;9.994;2022-09-17T04:43:02;11.80;99.90
981;DHT22;479;53.514;9.994;2022-09-17T04:45:30;11.80;99.90
981;DHT22;479;53.514;9.994;2022-09-17T04:47:58;11.70;99.90
981;DHT22;479;53.514;9.994;2022-09-17T04:50:24;11.70;99.90
981;DHT22;479;53.514;9.994;2022-09-17T04:52:51;11.70;99.90
981;DHT22;479;53.514;9.994;2022-09-17T04:55:18;11.60;99.90
981;DHT22;479;53.514;9.994;2022-09-17T04:57:46;11.60;99.90
981;DHT22;479;53.514;9.994;2022-09-17T05:00:13;11.70;99.90
981;DHT22;479;53.514;9.994;2022-09-17T05:02:46;11.70;99.90
981;DHT22;479;53.514;9.994;2022-09-17T05:05:14;11.80;99.90
981;DHT22;479;53.514;9.994;2022-09-17T05:07:42;11.80;99.90
981;DHT22;479;53.514;9.994;2022-09-17T05:10:13;11.60;99.90
981;DHT22;479;53.514;9.994;2022-09-17T05:12:45;11.70;99.90
981;DHT22;479;53.514;9.994;2022-09-17T05:15:12;11.70;99.90
981;DHT22;479;53.514;9.994;2022-09-17T05:17:39;11.70;99.90
981;DHT22;479;53.514;9.994;2022-09-17T05:20:08;11.70;99.90
981;DHT22;479;53.514;9.994;2022-09-17T05:22:40;11.70;99.90
981;DHT22;479;53.514;9.994;2022-09-17T05:25:07;11.60;99.90
981;DHT22;479;53.514;9.994;2022-09-17T05:27:34;11.80;99.90
981;DHT22;479;53.514;9.994;2022-09-17T05:30:02;11.60;99.90
981;DHT22;479;53.514;9.994;2022-09-17T05:32:29;11.60;99.90
981;DHT22;479;53.514;9.994;2022-09-17T05:34:55;11.50;99.90
981;DHT22;479;53.514;9.994;2022-09-17T05:37:24;11.50;99.90
981;DHT22;479;53.514;9.994;2022-09-17T05:39:51;11.50;99.90
981;DHT22;479;53.514;9.994;2022-09-17T05:42:18;11.50;99.90
981;DHT22;479;53.514;9.994;2022-09-17T05:44:45;11.50;99.90
981;DHT22;479;53.514;9.994;2022-09-17T05:47:12;11.60;99.90
981;DHT22;479;53.514;9.994;2022-09-17T05:49:38;11.50;99.90
981;DHT22;479;53.514;9.994;2022-09-17T05:52:11;11.50;99.90
981;DHT22;479;53.514;9.994;2022-09-17T05:54:39;11.50;99.90
981;DHT22;479;53.514;9.994;2022-09-17T05:57:08;11.50;99.90
981;DHT22;479;53.514;9.994;2022-09-17T05:59:35;11.50;99.90
981;DHT22;479;53.514;9.994;2022-09-17T06:02:02;11.50;99.90
981;DHT22;479;53.514;9.994;2022-09-17T06:04:29;11.50;99.90
981;DHT22;479;53.514;9.994;2022-09-17T06:06:56;11.50;99.90
981;DHT22;479;53.514;9.994;2022-09-17T06:09:23;11.50;99.90
981;DHT22;479;53.514;9.994;2022-09-17T06:11:54;11.60;99.90
981;DHT22;479;53.514;9.994;2022-09-17T06:14:23;11.50;99.90
981;DHT22;479;53.514;9.994;2022-09-17T06:16:50;11.60;99.90
981;DHT22;479;53.514;9.994;2022-09-17T06:19:17;11.70;99.90
981;DHT22;479;53.514;9.994;2022-09-17T06:21:45;11.80;99.90
981;DHT22;479;53.514;9.994;2022-09-17T06:24:12;11.70;99.90
981;DHT22;479;53.514;9.994;2022-09-17T06:26:39;11.70;99.90
981;DHT22;479;53.514;9.994;2022-09-17T06:29:07;11.70;99.90
981;DHT22;479;53.514;9.994;2022-09-17T06:31:34;11.70;99.90
981;DHT22;479;53.514;9.994;2022-09-17T06:34:06;11.70;99.90
981;DHT22;479;53.514;9.994;2022-09-17T06:36:36;11.80;99.90
981;DHT22;479;53.514;9.994;2022-09-17T06:39:03;11.90;99.90
981;DHT22;479;53.514;9.994;2022-09-17T06:41:30;11.70;99.90
981;DHT22;479;53.514;9.994;2022-09-17T06:43:57;11.80;99.90
981;DHT22;479;53.514;9.994;2022-09-17T06:46:26;11.80;99.90
981;DHT22;479;53.514;9.994;2022-09-17T06:48:53;11.90;99.90
981;DHT22;479;53.514;9.994;2022-09-17T06:51:20;12.00;99.90
981;DHT22;479;53.514;9.994;2022-09-17T06:53:51;12.10;99.90
981;DHT22;479;53.514;9.994;2022-09-17T06:56:18;12.10;99.90
981;DHT22;479;53.514;9.994;2022-09-17T06:58:45;12.00;99.90
981;DHT22;479;53.514;9.994;2022-09-17T07:01:12;12.00;99.90
981;DHT22;479;53.514;9.994;2022-09-17T07:03:41;12.10;99.90
981;DHT22;479;53.514;9.994;2022-09-17T07:06:09;12.10;99.90
981;DHT22;479;53.514;9.994;2022-09-17T07:08:37;12.10;99.90
981;DHT22;479;53.514;9.994;2022-09-17T07:11:04;12.20;99.90
981;DHT22;479;53.514;9.994;2022-09-17T07:13:35;12.30;99.90
981;DHT22;479;53.514;9.994;2022-09-17T07:16:03;12.40;99.90
981;DHT22;479;53.514;9.994;2022-09-17T07:18:31;12.60;99.90
981;DHT22;479;53.514;9.994;2022-09-17T07:21:00;12.80;99.90
981;DHT22;479;53.514;9.994;2022-09-17T07:23:29;13.00;99.90
981;DHT22;479;53.514;9.994;2022-09-17T07:25:58;12.90;99.90
981;DHT22;479;53.514;9.994;2022-09-17T07:28:25;12.90;99.90
981;DHT22;479;53.514;9.994;2022-09-17T07:30:53;12.90;99.90
981;DHT22;479;53.514;9.994;2022-09-17T07:33:22;13.00;99.90
981;DHT22;479;53.514;9.994;2022-09-17T07:35:53;12.90;99.90
981;DHT22;479;53.514;9.994;2022-09-17T07:38:22;12.90;99.90
981;DHT22;479;53.514;9.994;2022-09-17T07:40:57;12.90;99.90
981;DHT22;479;53.514;9.994;2022-09-17T07:43:24;13.00;99.90
981;DHT22;479;53.514;9.994;2022-09-17T07:45:52;13.10;99.90
981;DHT22;479;53.514;9.994;2022-09-17T07:48:19;13.10;99.90
981;DHT22;479;53.514;9.994;2022-09-17T07:50:47;13.40;99.90
981;DHT22;479;53.514;9.994;2022-09-17T07:53:14;13.90;99.90
981;DHT22;479;53.514;9.994;2022-09-17T07:55:45;14.30;99.90
981;DHT22;479;53.514;9.994;2022-09-17T07:58:16;15.00;99.90
981;DHT22;479;53.514;9.994;2022-09-17T08:00:43;15.50;99.90
981;DHT22;479;53.514;9.994;2022-09-17T08:03:10;16.00;99.90
981;DHT22;479;53.514;9.994;2022-09-17T08:05:37;16.00;99.90
981;DHT22;479;53.514;9.994;2022-09-17T08:08:04;16.00;99.90
981;DHT22;479;53.514;9.994;2022-09-17T08:10:31;15.30;99.90
981;DHT22;479;53.514;9.994;2022-09-17T08:12:59;14.80;99.90
981;DHT22;479;53.514;9.994;2022-09-17T08:15:26;14.40;99.90
981;DHT22;479;53.514;9.994;2022-09-17T08:17:53;14.00;99.90
981;DHT22;479;53.514;9.994;2022-09-17T08:20:20;13.80;99.90
981;DHT22;479;53.514;9.994;2022-09-17T08:22:48;13.70;99.90
981;DHT22;479;53.514;9.994;2022-09-17T08:25:15;13.80;99.90
981;DHT22;479;53.514;9.994;2022-09-17T08:27:42;14.50;99.90
981;DHT22;479;53.514;9.994;2022-09-17T08:30:11;15.50;99.90
981;DHT22;479;53.514;9.994;2022-09-17T08:32:38;15.90;99.90
981;DHT22;479;53.514;9.994;2022-09-17T08:35:05;16.20;99.90
981;DHT22;479;53.514;9.994;2022-09-17T08:37:32;16.60;99.90
981;DHT22;479;53.514;9.994;2022-09-17T08:40:00;17.20;99.90
981;DHT22;479;53.514;9.994;2022-09-17T08:42:31;17.30;99.90
981;DHT22;479;53.514;9.994;2022-09-17T08:45:02;16.50;99.90
981;DHT22;479;53.514;9.994;2022-09-17T08:47:34;16.20;99.90
981;DHT22;479;53.514;9.994;2022-09-17T08:50:06;16.90;99.90
981;DHT22;479;53.514;9.994;2022-09-17T08:55:56;17.50;99.90
981;DHT22;479;53.514;9.994;2022-09-17T08:58:36;17.90;99.90
981;DHT22;479;53.514;9.994;2022-09-17T09:01:24;18.20;99.90
981;DHT22;479;53.514;9.994;2022-09-17T09:04:18;18.70;99.90
981;DHT22;479;53.514;9.994;2022-09-17T09:06:52;18.70;99.20
981;DHT22;479;53.514;9.994;2022-09-17T09:09:23;17.50;99.90
981;DHT22;479;53.514;9.994;2022-09-17T09:11:57;17.10;99.90
981;DHT22;479;53.514;9.994;2022-09-17T09:14:29;17.40;99.90
981;DHT22;479;53.514;9.994;2022-09-17T09:16:57;17.60;99.90
981;DHT22;479;53.514;9.994;2022-09-17T09:19:30;17.20;99.90
981;DHT22;479;53.514;9.994;2022-09-17T09:22:01;16.30;99.90
981;DHT22;479;53.514;9.994;2022-09-17T09:24:36;15.20;99.90
981;DHT22;479;53.514;9.994;2022-09-17T09:27:14;14.90;99.90
981;DHT22;479;53.514;9.994;2022-09-17T09:29:47;15.00;99.90
981;DHT22;479;53.514;9.994;2022-09-17T09:32:32;15.10;99.90
981;DHT22;479;53.514;9.994;2022-09-17T09:35:16;15.40;99.90
981;DHT22;479;53.514;9.994;2022-09-17T09:37:47;15.20;99.90
981;DHT22;479;53.514;9.994;2022-09-17T09:40:25;15.00;99.90
981;DHT22;479;53.514;9.994;2022-09-17T09:42:54;15.60;99.90
981;DHT22;479;53.514;9.994;2022-09-17T09:45:36;15.80;99.90
981;DHT22;479;53.514;9.994;2022-09-17T09:48:08;16.30;99.90
981;DHT22;479;53.514;9.994;2022-09-17T09:50:43;16.50;99.90
981;DHT22;479;53.514;9.994;2022-09-17T09:53:21;16.20;99.90
981;DHT22;479;53.514;9.994;2022-09-17T09:56:07;15.70;99.90
981;DHT22;479;53.514;9.994;2022-09-17T09:58:39;16.30;99.90
981;DHT22;479;53.514;9.994;2022-09-17T10:01:11;15.60;99.90
981;DHT22;479;53.514;9.994;2022-09-17T10:03:41;15.20;99.90
981;DHT22;479;53.514;9.994;2022-09-17T10:06:12;15.60;99.90
981;DHT22;479;53.514;9.994;2022-09-17T10:09:11;15.70;99.90
981;DHT22;479;53.514;9.994;2022-09-17T10:11:39;15.80;99.90
981;DHT22;479;53.514;9.994;2022-09-17T10:14:14;15.90;99.90
981;DHT22;479;53.514;9.994;2022-09-17T10:16:41;16.00;99.90
981;DHT22;479;53.514;9.994;2022-09-17T10:19:16;15.70;99.90
981;DHT22;479;53.514;9.994;2022-09-17T10:21:45;15.60;99.90
981;DHT22;479;53.514;9.994;2022-09-17T10:24:21;16.20;99.90
981;DHT22;479;53.514;9.994;2022-09-17T10:26:49;16.30;99.90
981;DHT22;479;53.514;9.994;2022-09-17T10:29:18;16.50;99.90
981;DHT22;479;53.514;9.994;2022-09-17T10:31:47;16.40;99.90
981;DHT22;479;53.514;9.994;2022-09-17T10:34:19;16.10;99.90
981;DHT22;479;53.514;9.994;2022-09-17T10:36:48;16.00;99.90
981;DHT22;479;53.514;9.994;2022-09-17T10:39:27;16.10;99.90
981;DHT22;479;53.514;9.994;2022-09-17T10:41:56;16.30;99.90
981;DHT22;479;53.514;9.994;2022-09-17T10:44:25;16.30;99.90
981;DHT22;479;53.514;9.994;2022-09-17T10:46:52;15.90;99.90
981;DHT22;479;53.514;9.994;2022-09-17T10:49:31;15.90;99.90
981;DHT22;479;53.514;9.994;2022-09-17T10:52:11;15.50;99.90
981;DHT22;479;53.514;9.994;2022-09-17T10:55:10;15.90;99.90
981;DHT22;479;53.514;9.994;2022-09-17T10:57:59;15.30;99.90
981;DHT22;479;53.514;9.994;2022-09-17T11:00:31;15.00;99.90
981;DHT22;479;53.514;9.994;2022-09-17T11:06:28;15.50;99.90
981;DHT22;479;53.514;9.994;2022-09-17T11:09:08;16.30;99.90
981;DHT22;479;53.514;9.994;2022-09-17T11:11:49;16.10;99.90
981;DHT22;479;53.514;9.994;2022-09-17T11:14:42;15.70;99.90
981;DHT22;479;53.514;9.994;2022-09-17T11:17:25;15.30;99.90
981;DHT22;479;53.514;9.994;2022-09-17T11:19:57;15.50;99.90
981;DHT22;479;53.514;9.994;2022-09-17T11:22:42;15.40;99.90
981;DHT22;479;53.514;9.994;2022-09-17T11:25:30;15.20;99.90
981;DHT22;479;53.514;9.994;2022-09-17T11:28:16;15.10;99.90
981;DHT22;479;53.514;9.994;2022-09-17T11:30:59;15.00;99.90
981;DHT22;479;53.514;9.994;2022-09-17T11:33:46;15.40;99.90
981;DHT22;479;53.514;9.994;2022-09-17T11:36:21;15.30;99.90
981;DHT22;479;53.514;9.994;2022-09-17T11:38:49;15.10;99.90
981;DHT22;479;53.514;9.994;2022-09-17T11:41:20;15.40;99.90
981;DHT22;479;53.514;9.994;2022-09-17T11:43:55;15.50;99.90
981;DHT22;479;53.514;9.994;2022-09-17T11:46:29;15.50;99.90
981;DHT22;479;53.514;9.994;2022-09-17T11:49:01;15.50;99.90
981;DHT22;479;53.514;9.994;2022-09-17T11:51:31;15.40;99.90
981;DHT22;479;53.514;9.994;2022-09-17T11:54:03;14.80;99.90
981;DHT22;479;53.514;9.994;2022-09-17T11:56:37;14.60;99.90
981;DHT22;479;53.514;9.994;2022-09-17T11:59:17;14.60;99.90
981;DHT22;479;53.514;9.994;2022-09-17T12:01:51;14.80;99.90
981;DHT22;479;53.514;9.994;2022-09-17T12:04:28;14.90;99.90
981;DHT22;479;53.514;9.994;2022-09-17T12:07:00;14.90;99.90
981;DHT22;479;53.514;9.994;2022-09-17T12:09:31;15.00;99.90
981;DHT22;479;53.514;9.994;2022-09-17T12:12:05;15.00;99.90
981;DHT22;479;53.514;9.994;2022-09-17T12:14:42;14.80;99.90
981;DHT22;479;53.514;9.994;2022-09-17T12:17:15;14.90;99.90
981;DHT22;479;53.514;9.994;2022-09-17T12:19:46;14.90;99.90
981;DHT22;479;53.514;9.994;2022-09-17T12:22:19;14.90;99.90
981;DHT22;479;53.514;9.994;2022-09-17T12:24:49;14.80;99.90
981;DHT22;479;53.514;9.994;2022-09-17T12:27:26;14.70;99.90
981;DHT22;479;53.514;9.994;2022-09-17T12:30:09;14.90;99.90
981;DHT22;479;53.514;9.994;2022-09-17T12:32:46;15.30;99.90
981;DHT22;479;53.514;9.994;2022-09-17T12:35:29;15.10;99.90
981;DHT22;479;53.514;9.994;2022-09-17T12:38:11;15.20;99.90
981;DHT22;479;53.514;9.994;2022-09-17T12:40:45;15.50;99.90
981;DHT22;479;53.514;9.994;2022-09-17T12:43:37;15.50;99.90
981;DHT22;479;53.514;9.994;2022-09-17T12:46:15;15.40;99.90
981;DHT22;479;53.514;9.994;2022-09-17T12:49:07;15.40;99.90
981;DHT22;479;53.514;9.994;2022-09-17T12:51:51;15.40;99.90
981;DHT22;479;53.514;9.994;2022-09-17T12:57:30;15.20;99.90
981;DHT22;479;53.514;9.994;2022-09-17T13:00:05;15.30;99.90
981;DHT22;479;53.514;9.994;2022-09-17T13:02:39;15.30;99.90
981;DHT22;479;53.514;9.994;2022-09-17T13:05:26;15.20;99.90
981;DHT22;479;53.514;9.994;2022-09-17T13:08:25;15.20;99.90
981;DHT22;479;53.514;9.994;2022-09-17T13:11:12;15.20;99.90
981;DHT22;479;53.514;9.994;2022-09-17T13:13:50;15.10;99.90
981;DHT22;479;53.514;9.994;2022-09-17T13:16:22;15.30;99.90
981;DHT22;479;53.514;9.994;2022-09-17T13:18:56;15.30;99.90
981;DHT22;479;53.514;9.994;2022-09-17T13:21:30;15.40;99.90
981;DHT22;479;53.514;9.994;2022-09-17T13:23:59;15.20;99.90
981;DHT22;479;53.514;9.994;2022-09-17T13:26:34;15.20;99.90
981;DHT22;479;53.514;9.994;2022-09-17T13:29:02;14.90;99.90
981;DHT22;479;53.514;9.994;2022-09-17T13:31:48;14.60;99.90
981;DHT22;479;53.514;9.994;2022-09-17T13:34:29;14.50;99.90
981;DHT22;479;53.514;9.994;2022-09-17T13:36:58;14.20;99.90
981;DHT22;479;53.514;9.994;2022-09-17T13:39:41;14.00;99.90
981;DHT22;479;53.514;9.994;2022-09-17T13:42:14;13.80;99.90
981;DHT22;479;53.514;9.994;2022-09-17T13:44:44;13.80;99.90
981;DHT22;479;53.514;9.994;2022-09-17T13:47:23;13.80;99.90
981;DHT22;479;53.514;9.994;2022-09-17T13:49:56;13.80;99.90
981;DHT22;479;53.514;9.994;2022-09-17T13:52:39;13.70;99.90
981;DHT22;479;53.514;9.994;2022-09-17T13:55:08;13.70;99.90
981;DHT22;479;53.514;9.994;2022-09-17T13:57:59;13.90;99.90
981;DHT22;479;53.514;9.994;2022-09-17T14:00:46;14.00;99.90
981;DHT22;479;53.514;9.994;2022-09-17T14:03:54;14.20;99.90
981;DHT22;479;53.514;9.994;2022-09-17T14:06:47;14.30;99.90
981;DHT22;479;53.514;9.994;2022-09-17T14:09:46;14.40;99.90
981;DHT22;479;53.514;9.994;2022-09-17T14:12:56;14.60;99.90
981;DHT22;479;53.514;9.994;2022-09-17T14:15:35;14.60;99.90
981;DHT22;479;53.514;9.994;2022-09-17T14:18:41;14.60;99.90
981;DHT22;479;53.514;9.994;2022-09-17T14:21:26;14.70;99.90
981;DHT22;479;53.514;9.994;2022-09-17T14:23:56;14.60;99.90
981;DHT22;479;53.514;9.994;2022-09-17T14:29:26;14.70;99.90
981;DHT22;479;53.514;9.994;2022-09-17T14:31:55;14.70;99.90
981;DHT22;479;53.514;9.994;2022-09-17T14:34:24;14.60;99.90
981;DHT22;479;53.514;9.994;2022-09-17T14:36:53;14.60;99.90
981;DHT22;479;53.514;9.994;2022-09-17T14:39:22;14.70;99.90
981;DHT22;479;53.514;9.994;2022-09-17T14:41:51;14.80;99.90
981;DHT22;479;53.514;9.994;2022-09-17T14:44:21;14.90;99.90
981;DHT22;479;53.514;9.994;2022-09-17T14:46:53;14.90;99.90
981;DHT22;479;53.514;9.994;2022-09-17T14:49:22;15.00;99.90
981;DHT22;479;53.514;9.994;2022-09-17T14:51:49;14.60;99.90
981;DHT22;479;53.514;9.994;2022-09-17T14:54:20;14.50;99.90
981;DHT22;479;53.514;9.994;2022-09-17T14:56:58;14.20;99.90
981;DHT22;479;53.514;9.994;2022-09-17T14:59:40;14.00;99.90
981;DHT22;479;53.514;9.994;2022-09-17T15:02:26;13.70;99.90
981;DHT22;479;53.514;9.994;2022-09-17T15:04:54;13.60;99.90
981;DHT22;479;53.514;9.994;2022-09-17T15:07:22;13.30;99.90
981;DHT22;479;53.514;9.994;2022-09-17T15:09:51;13.30;99.90
981;DHT22;479;53.514;9.994;2022-09-17T15:12:23;13.20;99.90
981;DHT22;479;53.514;9.994;2022-09-17T15:14:52;13.10;99.90
981;DHT22;479;53.514;9.994;2022-09-17T15:17:20;12.90;99.90
981;DHT22;479;53.514;9.994;2022-09-17T15:19:49;12.90;99.90
981;DHT22;479;53.514;9.994;2022-09-17T15:22:20;12.90;99.90
981;DHT22;479;53.514;9.994;2022-09-17T15:24:53;13.10;99.90
981;DHT22;479;53.514;9.994;2022-09-17T15:27:24;13.10;99.90
981;DHT22;479;53.514;9.994;2022-09-17T15:29:57;13.10;99.90
981;DHT22;479;53.514;9.994;2022-09-17T15:32:25;13.10;99.90
981;DHT22;479;53.514;9.994;2022-09-17T15:37:57;13.10;99.90
981;DHT22;479;53.514;9.994;2022-09-17T15:40:28;13.10;99.90
981;DHT22;479;53.514;9.994;2022-09-17T15:43:14;13.20;99.90
981;DHT22;479;53.514;9.994;2022-09-17T15:45:42;13.20;99.90
981;DHT22;479;53.514;9.994;2022-09-17T15:48:21;13.30;99.90
981;DHT22;479;53.514;9.994;2022-09-17T15:50:50;13.30;99.90
981;DHT22;479;53.514;9.994;2022-09-17T15:53:21;13.40;99.90
981;DHT22;479;53.514;9.994;2022-09-17T15:56:05;13.30;99.90
981;DHT22;479;53.514;9.994;2022-09-17T15:58:35;13.30;99.90
981;DHT22;479;53.514;9.994;2022-09-17T16:01:49;13.30;99.90
981;DHT22;479;53.514;9.994;2022-09-17T16:04:24;13.30;99.90
981;DHT22;479;53.514;9.994;2022-09-17T16:07:00;13.40;99.90
981;DHT22;479;53.514;9.994;2022-09-17T16:09:39;13.30;99.90
981;DHT22;479;53.514;9.994;2022-09-17T16:12:11;13.30;99.90
981;DHT22;479;53.514;9.994;2022-09-17T16:14:42;13.30;99.90
981;DHT22;479;53.514;9.994;2022-09-17T16:17:27;13.20;99.90
981;DHT22;479;53.514;9.994;2022-09-17T16:19:57;13.20;99.90
981;DHT22;479;53.514;9.994;2022-09-17T16:22:25;13.20;99.90
981;DHT22;479;53.514;9.994;2022-09-17T16:24:54;13.10;99.90
981;DHT22;479;53.514;9.994;2022-09-17T16:27:24;13.30;99.90
981;DHT22;479;53.514;9.994;2022-09-17T16:29:59;13.30;99.90
981;DHT22;479;53.514;9.994;2022-09-17T16:32:29;13.10;99.90
981;DHT22;479;53.514;9.994;2022-09-17T16:34:56;13.10;99.90
981;DHT22;479;53.514;9.994;2022-09-17T16:37:23;13.00;99.90
981;DHT22;479;53.514;9.994;2022-09-17T16:39:50;13.10;99.90
981;DHT22;479;53.514;9.994;2022-09-17T16:42:18;13.10;99.90
981;DHT22;479;53.514;9.994;2022-09-17T16:44:46;13.20;99.90
981;DHT22;479;53.514;9.994;2022-09-17T16:47:13;13.10;99.90
981;DHT22;479;53.514;9.994;2022-09-17T16:49:40;13.00;99.90
981;DHT22;479;53.514;9.994;2022-09-17T16:52:07;13.00;99.90
981;DHT22;479;53.514;9.994;2022-09-17T16:54:34;13.10;99.90
981;DHT22;479;53.514;9.994;2022-09-17T16:57:00;13.20;99.90
981;DHT22;479;53.514;9.994;2022-09-17T16:59:27;13.10;99.90
981;DHT22;479;53.514;9.994;2022-09-17T17:01:55;13.10;99.90
981;DHT22;479;53.514;9.994;2022-09-17T17:04:22;13.00;99.90
981;DHT22;479;53.514;9.994;2022-09-17T17:06:49;13.10;99.90
981;DHT22;479;53.514;9.994;2022-09-17T17:09:16;13.10;99.90
981;DHT22;479;53.514;9.994;2022-09-17T17:11:43;13.20;99.90
981;DHT22;479;53.514;9.994;2022-09-17T17:14:10;13.10;99.90
981;DHT22;479;53.514;9.994;2022-09-17T17:16:37;13.10;99.90
981;DHT22;479;53.514;9.994;2022-09-17T17:19:07;13.00;99.90
981;DHT22;479;53.514;9.994;2022-09-17T17:21:33;13.10;99.90
981;DHT22;479;53.514;9.994;2022-09-17T17:24:01;13.20;99.90
981;DHT22;479;53.514;9.994;2022-09-17T17:26:28;13.20;99.90
981;DHT22;479;53.514;9.994;2022-09-17T17:28:55;13.10;99.90